Neuburg — 5BQJ2 — position and weather

sailwx.info

Track history (hours):
 
Tides and Currents Weather Stations Pressure Air Temp Water Temp Dewpoint Dewpoint Depression Visibility Wind Speed Wind Dir Waves Ship Positions

Neuburg

Last reported at 2014-Sep-13 16:18 UTC. Time now 2014-Sep-17 23:42 UTC.
Position N 37°03' W 001°18'.

Length 142 m; draft 7.3 m.

Type: Ship (hazmat cat A). MMSI: 212740000.

Date/timePositionNaut miles runAvg speedWind from/ knotsBaromVisibWave heightAir tempDewpointWater temp
2014-Sep-13 16:18N 37°03' W 001°18'1216.3
2014-Sep-13 15:33N 37°11' W 001°07'1716.5
2014-Sep-13 14:33N 37°22' W 000°51'1616.3
2014-Sep-13 13:33N 37°33' W 000°37'1515.6
2014-Sep-13 12:33N 37°47' W 000°29'1616.0
2014-Sep-13 11:31N 38°03' W 000°24'17 1.7
2014-Sep-13 01:28N 38°20' W 000°30'0 0.0
2014-Sep-13 00:28N 38°20' W 000°30'3 0.4
2014-Sep-12 15:33N 38°17' W 000°27'1010.5
2014-Sep-12 14:34N 38°07' W 000°23'1312.9
2014-Sep-12 13:33N 37°54' W 000°25'1313.5
2014-Sep-12 12:34N 37°41' W 000°28'1313.1
2014-Sep-12 11:34N 37°30' W 000°36'1313.4
2014-Sep-12 10:33N 37°21' W 000°48'1513.2
2014-Sep-12 09:27N 37°11' W 001°02'21715.6
2014-Sep-11 19:33N 35°59' W 005°17'  
2014-Sep-06 15:04N 36°39' W 001°52'815.9
2014-Sep-06 14:33N 36°45' W 001°44'3316.4
2014-Sep-06 12:33N 37°06' W 001°13'3816.9
2014-Sep-06 10:20N 37°31' W 000°38'1316.4
2014-Sep-06 09:33N 37°43' W 000°31'1716.8
2014-Sep-06 08:33N 37°59' W 000°26'6 0.3
2014-Sep-05 13:25N 38°04' W 000°24'1416.8
2014-Sep-05 12:33N 37°50' W 000°26'1717.1
2014-Sep-05 11:32N 37°33' W 000°31'1616.4
2014-Sep-05 10:33N 37°22' W 000°46'23616.8
2014-Sep-04 20:33N 35°59' W 005°21'3316.7
2014-Sep-04 18:33N 35°48' W 006°00'  
Track history (hours):
 
Tides and Currents Weather Stations Pressure Air Temp Water Temp Dewpoint Dewpoint Depression Visibility Wind Speed Wind Dir Waves Ship Positions

Neuburg

Last reported at 2014-Sep-13 16:18 UTC. Time now 2014-Sep-17 23:42 UTC.
Position N 37°03' W 001°18'.

Length 142 m; draft 7.3 m.

Type: Ship (hazmat cat A). MMSI: 212740000.

Date/timePositionNaut miles runAvg speedWind from/ knotsBaromVisibWave heightAir tempDewpointWater temp
2014-Sep-13 16:18N 37°03' W 001°18'1216.3
2014-Sep-13 15:33N 37°11' W 001°07'1716.5
2014-Sep-13 14:33N 37°22' W 000°51'1616.3
2014-Sep-13 13:33N 37°33' W 000°37'1515.6
2014-Sep-13 12:33N 37°47' W 000°29'1616.0
2014-Sep-13 11:31N 38°03' W 000°24'17 1.7
2014-Sep-13 01:28N 38°20' W 000°30'0 0.0
2014-Sep-13 00:28N 38°20' W 000°30'3 0.4
2014-Sep-12 15:33N 38°17' W 000°27'1010.5
2014-Sep-12 14:34N 38°07' W 000°23'1312.9
2014-Sep-12 13:33N 37°54' W 000°25'1313.5
2014-Sep-12 12:34N 37°41' W 000°28'1313.1
2014-Sep-12 11:34N 37°30' W 000°36'1313.4
2014-Sep-12 10:33N 37°21' W 000°48'1513.2
2014-Sep-12 09:27N 37°11' W 001°02'21715.6
2014-Sep-11 19:33N 35°59' W 005°17'  
2014-Sep-06 15:04N 36°39' W 001°52'815.9
2014-Sep-06 14:33N 36°45' W 001°44'3316.4
2014-Sep-06 12:33N 37°06' W 001°13'3816.9
2014-Sep-06 10:20N 37°31' W 000°38'1316.4
2014-Sep-06 09:33N 37°43' W 000°31'1716.8
2014-Sep-06 08:33N 37°59' W 000°26'6 0.3
2014-Sep-05 13:25N 38°04' W 000°24'1416.8
2014-Sep-05 12:33N 37°50' W 000°26'1717.1
2014-Sep-05 11:32N 37°33' W 000°31'1616.4
2014-Sep-05 10:33N 37°22' W 000°46'23616.8
2014-Sep-04 20:33N 35°59' W 005°21'3316.7
2014-Sep-04 18:33N 35°48' W 006°00'  

Dump ship's entire track history